createdAt,value
2017-09-13T00:01:10.261Z,100229.22
2017-09-13T00:03:48.821Z,100222.97
2017-09-13T00:06:25.614Z,100219.86
2017-09-13T00:09:05.058Z,100217.11
2017-09-13T00:14:31.951Z,100204.34
2017-09-13T00:17:05.679Z,100205.93
2017-09-13T00:19:39.208Z,100192.73
2017-09-13T00:22:18.532Z,100191.69
2017-09-13T00:27:53.565Z,100172.71
2017-09-13T00:30:25.739Z,100173.21
2017-09-13T00:32:57.082Z,100197.27
2017-09-13T00:38:23.964Z,100178.14
2017-09-13T00:41:16.868Z,100163.91
2017-09-13T00:43:57.185Z,100150.05
2017-09-13T00:49:25.579Z,100145.08
2017-09-13T00:52:14.197Z,100143.64
2017-09-13T00:54:47.035Z,100144.69
2017-09-13T00:57:27.675Z,100137.82
2017-09-13T01:00:11.759Z,100138.41
2017-09-13T01:02:44.746Z,100132.31
2017-09-13T01:05:30.813Z,100130.76
2017-09-13T01:08:17.931Z,100131.57
2017-09-13T01:10:49.975Z,100124.12
2017-09-13T01:13:24.463Z,100122.64
2017-09-13T01:15:57.670Z,100122.84
2017-09-13T01:18:29.606Z,100113.17
2017-09-13T01:21:02.049Z,100123.38
2017-09-13T01:23:33.905Z,100105.75
2017-09-13T01:26:07.849Z,100105.91
2017-09-13T01:28:40.576Z,100095.28
2017-09-13T01:31:13.133Z,100091.47
2017-09-13T01:33:46.590Z,100079.01
2017-09-13T01:36:22.301Z,100057.27
2017-09-13T01:38:54.254Z,100060.34
2017-09-13T01:41:26.361Z,100055.80
2017-09-13T01:43:58.469Z,100060.34
2017-09-13T01:46:30.670Z,100063.77
2017-09-13T01:49:03.284Z,100056.94
2017-09-13T01:51:37.563Z,100061.52
2017-09-13T01:54:14.967Z,100060.66
2017-09-13T01:56:48.954Z,100059.67
2017-09-13T01:59:22.119Z,100044.37
2017-09-13T02:01:54.265Z,100032.27
2017-09-13T02:04:25.622Z,100027.41
2017-09-13T02:06:57.716Z,100021.39
2017-09-13T02:09:29.551Z,100008.10
2017-09-13T02:12:02.921Z,100005.61
2017-09-13T02:14:35.340Z,100004.47
2017-09-13T02:17:07.832Z,99997.98
2017-09-13T02:19:41.538Z,99997.33
2017-09-13T02:22:18.290Z,99986.00
2017-09-13T02:24:50.720Z,99974.83
2017-09-13T02:27:23.258Z,99974.75
2017-09-13T02:29:56.160Z,99965.50
2017-09-13T02:32:28.545Z,99958.85
2017-09-13T02:35:12.786Z,99956.19
2017-09-13T02:37:45.758Z,99938.53
2017-09-13T02:43:33.860Z,99934.41
2017-09-13T02:46:41.667Z,99929.86
2017-09-13T02:49:19.359Z,99930.83
2017-09-13T02:51:53.023Z,99912.28
2017-09-13T02:54:25.137Z,99902.99
2017-09-13T02:56:57.168Z,99893.20
2017-09-13T02:59:29.121Z,99894.21
2017-09-13T03:02:07.061Z,99888.94
2017-09-13T03:04:40.806Z,99882.34
2017-09-13T03:07:12.833Z,99873.40
2017-09-13T03:09:45.388Z,99874.97
2017-09-13T03:12:16.697Z,99864.45
2017-09-13T03:14:49.612Z,99853.00
2017-09-13T03:17:32.723Z,99855.05
2017-09-13T03:20:07.895Z,99849.72
2017-09-13T03:22:47.969Z,99849.59
2017-09-13T03:25:31.238Z,99852.71
2017-09-13T03:28:05.876Z,99852.25
2017-09-13T03:31:50.857Z,99844.41
2017-09-13T03:34:22.245Z,99835.89
2017-09-13T03:36:55.467Z,99825.85
2017-09-13T03:39:27.368Z,99821.72
2017-09-13T03:42:05.395Z,99813.25
2017-09-13T03:44:57.121Z,99800.48
2017-09-13T03:47:29.169Z,99800.44
2017-09-13T03:50:07.616Z,99800.61
2017-09-13T03:55:33.536Z,99792.05
2017-09-13T03:58:10.149Z,99786.90
2017-09-13T04:00:43.330Z,99780.13
2017-09-13T04:03:25.784Z,99768.62
2017-09-13T04:05:58.286Z,99760.03
2017-09-13T04:08:45.379Z,99759.94
2017-09-13T04:13:52.531Z,99742.78
2017-09-13T04:16:29.964Z,99722.03
2017-09-13T04:19:02.220Z,99723.39
2017-09-13T04:21:35.149Z,99727.38
2017-09-13T04:24:25.796Z,99721.84
2017-09-13T04:26:56.908Z,99714.34
2017-09-13T04:29:29.046Z,99710.20
2017-09-13T04:32:00.135Z,99706.60
2017-09-13T04:36:13.174Z,99689.03
2017-09-13T04:38:55.140Z,99689.37
2017-09-13T04:41:32.572Z,99671.61
2017-09-13T04:44:06.883Z,99676.48
2017-09-13T04:46:39.264Z,99680.27
2017-09-13T04:49:17.616Z,99671.14
2017-09-13T04:52:06.231Z,99671.12
2017-09-13T04:54:38.302Z,99668.25
2017-09-13T04:57:10.965Z,99674.67
2017-09-13T04:59:44.016Z,99674.65
2017-09-13T05:02:22.127Z,99658.72
2017-09-13T05:04:56.721Z,99652.87
2017-09-13T05:08:31.554Z,99654.19
2017-09-13T05:11:03.082Z,99670.81
2017-09-13T05:13:38.312Z,99663.15
2017-09-13T05:16:20.324Z,99665.84
2017-09-13T05:18:51.522Z,99649.67
2017-09-13T05:23:05.445Z,99666.20
2017-09-13T05:25:37.458Z,99654.59
2017-09-13T05:28:12.053Z,99649.96
2017-09-13T05:30:50.924Z,99659.69
2017-09-13T05:33:28.147Z,99664.05
2017-09-13T05:36:00.895Z,99660.73
2017-09-13T05:38:32.428Z,99658.50
2017-09-13T05:41:03.750Z,99678.64
2017-09-13T05:43:37.106Z,99668.55
2017-09-13T05:47:18.852Z,99671.69
2017-09-13T05:49:51.536Z,99666.11
2017-09-13T05:52:27.457Z,99663.70
2017-09-13T05:57:57.365Z,99643.44
2017-09-13T06:03:30.204Z,99664.03
2017-09-13T06:06:12.102Z,99651.03
2017-09-13T06:08:51.594Z,99648.05
2017-09-13T06:11:25.074Z,99656.73
2017-09-13T06:17:05.851Z,99673.87
2017-09-13T06:19:37.253Z,99653.89
2017-09-13T06:22:15.068Z,99672.45
2017-09-13T06:24:46.555Z,99665.14
2017-09-13T06:27:28.387Z,99659.56
2017-09-13T06:29:59.738Z,99667.65
2017-09-13T06:35:29.589Z,99647.02
2017-09-13T06:38:01.065Z,99648.75
2017-09-13T06:40:32.521Z,99643.30
2017-09-13T06:43:04.962Z,99640.11
2017-09-13T06:46:59.993Z,99654.64
2017-09-13T06:52:32.230Z,99625.08
2017-09-13T06:55:22.603Z,99641.03
2017-09-13T06:57:54.874Z,99635.49
2017-09-13T07:00:27.292Z,99632.42
2017-09-13T07:02:58.624Z,99628.36
2017-09-13T07:05:34.357Z,99628.66
2017-09-13T07:08:07.091Z,99618.95
2017-09-13T07:10:38.424Z,99633.14
2017-09-13T07:16:06.148Z,99632.39
2017-09-13T07:18:39.593Z,99634.19
2017-09-13T07:21:31.646Z,99639.05
2017-09-13T07:24:05.315Z,99630.52
2017-09-13T07:26:36.706Z,99604.19
2017-09-13T07:32:04.897Z,99617.64
2017-09-13T07:34:38.070Z,99624.03
2017-09-13T07:37:09.183Z,99632.33
2017-09-13T07:39:42.261Z,99617.77
2017-09-13T07:42:14.571Z,99646.89
2017-09-13T07:44:47.070Z,99634.97
2017-09-13T07:47:28.114Z,99642.59
2017-09-13T07:52:55.298Z,99617.71
2017-09-13T07:55:29.427Z,99620.89
2017-09-13T07:58:01.115Z,99609.86
2017-09-13T08:01:22.507Z,99612.07
2017-09-13T08:03:56.646Z,99609.38
2017-09-13T08:06:28.593Z,99623.12
2017-09-13T08:09:01.576Z,99615.70
2017-09-13T08:11:33.023Z,99610.83
2017-09-13T08:15:11.189Z,99609.53
2017-09-13T08:17:47.147Z,99626.79
2017-09-13T08:20:19.512Z,99612.56
2017-09-13T08:22:51.738Z,99614.75
2017-09-13T08:25:24.370Z,99630.36
2017-09-13T08:27:57.713Z,99617.27
2017-09-13T08:30:28.879Z,99619.18
2017-09-13T08:33:00.156Z,99630.14
2017-09-13T08:35:32.485Z,99619.61
2017-09-13T08:38:06.106Z,99625.49
2017-09-13T08:40:45.674Z,99616.34
2017-09-13T08:44:52.401Z,99621.66
2017-09-13T08:50:20.177Z,99611.32
2017-09-13T08:52:53.134Z,99608.55
2017-09-13T08:55:25.673Z,99609.64
2017-09-13T08:57:58.297Z,99603.13
2017-09-13T09:07:52.417Z,99599.80
2017-09-13T09:10:23.837Z,99593.16
2017-09-13T09:12:55.221Z,99590.43
2017-09-13T09:15:26.720Z,99592.84
2017-09-13T09:18:00.181Z,99588.98
2017-09-13T09:20:37.601Z,99583.27
2017-09-13T09:23:11.951Z,99578.47
2017-09-13T09:28:39.850Z,99584.65
2017-09-13T09:31:12.642Z,99579.23
2017-09-13T09:36:41.639Z,99583.27
2017-09-13T09:39:15.304Z,99581.24
2017-09-13T09:45:16.026Z,99588.98
2017-09-13T09:50:41.927Z,99582.82
2017-09-13T09:53:14.053Z,99580.06
2017-09-13T09:58:47.454Z,99570.81
2017-09-13T10:01:18.690Z,99577.66
2017-09-13T10:03:51.003Z,99584.22
2017-09-13T10:06:22.441Z,99575.72
2017-09-13T10:08:58.413Z,99587.59
2017-09-13T10:11:32.589Z,99564.09
2017-09-13T10:15:10.505Z,99560.69
2017-09-13T10:17:46.541Z,99558.34
2017-09-13T10:20:18.434Z,99576.27
2017-09-13T10:22:51.513Z,99555.08
2017-09-13T10:25:23.743Z,99558.45
2017-09-13T10:27:57.406Z,99562.41
2017-09-13T10:30:29.044Z,99560.79
2017-09-13T10:33:00.142Z,99576.72
2017-09-13T10:36:25.592Z,99592.97
2017-09-13T10:38:56.969Z,99595.08
2017-09-13T10:41:29.830Z,99610.92
2017-09-13T10:44:03.856Z,99633.67
2017-09-13T10:46:35.089Z,99613.53
2017-09-13T10:49:07.389Z,99595.61
2017-09-13T10:51:38.943Z,99619.99
2017-09-13T10:54:14.976Z,99597.05
2017-09-13T10:56:50.432Z,99622.95
2017-09-13T10:59:26.174Z,99626.62
2017-09-13T11:01:58.740Z,99608.69
2017-09-13T11:04:47.331Z,99624.27
2017-09-13T11:07:20.571Z,99625.52
2017-09-13T11:09:52.002Z,99608.13
2017-09-13T11:12:31.295Z,99615.95
2017-09-13T11:15:02.735Z,99607.42
2017-09-13T11:18:45.211Z,99619.08
2017-09-13T11:21:16.575Z,99624.03
2017-09-13T11:23:48.589Z,99624.43
2017-09-13T11:26:38.980Z,99634.11
2017-09-13T11:29:10.812Z,99630.08
2017-09-13T11:31:53.650Z,99622.92
2017-09-13T11:34:27.503Z,99608.08
2017-09-13T11:39:54.068Z,99608.58
2017-09-13T11:42:25.669Z,99621.70
2017-09-13T11:45:09.707Z,99624.34
2017-09-13T11:47:53.290Z,99604.75
2017-09-13T11:53:24.178Z,99639.58
2017-09-13T11:55:57.146Z,99650.40
2017-09-13T11:58:28.393Z,99641.20
2017-09-13T12:01:03.269Z,99646.97
2017-09-13T12:03:34.676Z,99653.82
2017-09-13T12:06:16.342Z,99649.14
2017-09-13T12:08:50.058Z,99640.03
2017-09-13T12:11:22.065Z,99642.64
2017-09-13T12:13:56.102Z,99659.66
2017-09-13T12:19:23.608Z,99632.45
2017-09-13T12:22:01.464Z,99634.63
2017-09-13T12:27:16.059Z,99634.28
2017-09-13T12:29:50.731Z,99620.36
2017-09-13T12:32:23.534Z,99634.05
2017-09-13T12:34:55.429Z,99633.00
2017-09-13T12:37:26.911Z,99630.48
2017-09-13T12:39:58.605Z,99649.13
2017-09-13T12:42:29.878Z,99665.75
2017-09-13T12:45:01.674Z,99665.27
2017-09-13T12:47:52.369Z,99661.42
2017-09-13T12:50:37.608Z,99674.11
2017-09-13T12:53:10.572Z,99678.16
2017-09-13T12:55:51.442Z,99658.09
2017-09-13T12:58:27.138Z,99647.47
2017-09-13T13:00:58.503Z,99666.63
2017-09-13T13:06:22.858Z,99672.39
2017-09-13T13:09:11.969Z,99674.83
2017-09-13T13:14:44.516Z,99655.27
2017-09-13T13:17:15.703Z,99654.35
2017-09-13T13:22:39.763Z,99666.27
2017-09-13T13:25:11.009Z,99659.00
2017-09-13T13:30:38.155Z,99675.19
2017-09-13T13:33:12.375Z,99684.46
2017-09-13T13:35:48.336Z,99673.47
2017-09-13T13:38:21.111Z,99684.33
2017-09-13T13:40:53.011Z,99682.59
2017-09-13T13:43:28.284Z,99682.29
2017-09-13T13:46:09.897Z,99669.09
2017-09-13T13:48:43.038Z,99683.03
2017-09-13T13:51:14.390Z,99677.69
2017-09-13T13:53:48.042Z,99675.47
2017-09-13T13:56:19.855Z,99680.72
2017-09-13T13:58:51.380Z,99666.63
2017-09-13T14:01:40.654Z,99670.27
2017-09-13T14:04:14.562Z,99672.83
2017-09-13T14:06:58.960Z,99660.39
2017-09-13T14:09:31.137Z,99633.66
2017-09-13T14:12:05.323Z,99639.98
2017-09-13T14:14:37.648Z,99632.68
2017-09-13T14:17:10.478Z,99625.94
2017-09-13T14:19:44.336Z,99635.08
2017-09-13T14:22:15.684Z,99622.92
2017-09-13T14:24:49.448Z,99638.95
2017-09-13T14:27:21.355Z,99629.28
2017-09-13T14:29:58.381Z,99616.08
2017-09-13T14:32:29.620Z,99616.72
2017-09-13T14:37:56.284Z,99611.15
2017-09-13T14:40:27.598Z,99611.28
2017-09-13T14:45:58.062Z,99618.13
2017-09-13T14:48:31.955Z,99611.44
2017-09-13T14:51:08.975Z,99630.77
2017-09-13T14:53:40.559Z,99622.88
2017-09-13T14:56:14.027Z,99628.49
2017-09-13T14:58:49.359Z,99626.58
2017-09-13T15:01:20.999Z,99631.22
2017-09-13T15:03:52.249Z,99631.40
2017-09-13T15:06:28.580Z,99627.42
2017-09-13T15:08:59.884Z,99629.19
2017-09-13T15:11:31.464Z,99649.20
2017-09-13T15:14:20.871Z,99640.38
2017-09-13T15:16:54.486Z,99629.88
2017-09-13T15:19:26.630Z,99635.77
2017-09-13T15:21:58.489Z,99648.56
2017-09-13T15:27:20.976Z,99651.14
2017-09-13T15:29:52.130Z,99638.53
2017-09-13T15:32:23.720Z,99645.70
2017-09-13T15:35:07.781Z,99644.27
2017-09-13T15:37:40.213Z,99617.85
2017-09-13T15:40:13.849Z,99616.59
2017-09-13T15:42:46.456Z,99628.27
2017-09-13T15:45:17.753Z,99624.73
2017-09-13T15:47:51.963Z,99611.84
2017-09-13T15:50:23.382Z,99614.67
2017-09-13T15:52:54.540Z,99619.13
2017-09-13T15:55:26.136Z,99607.84
2017-09-13T15:57:57.390Z,99609.54
2017-09-13T16:00:28.961Z,99597.41
2017-09-13T16:03:00.853Z,99601.17
2017-09-13T16:08:21.580Z,99605.87
2017-09-13T16:10:53.149Z,99595.16
2017-09-13T16:13:24.460Z,99602.10
2017-09-13T16:15:56.026Z,99616.45
2017-09-13T16:18:27.621Z,99618.06
2017-09-13T16:20:58.774Z,99598.91
2017-09-13T16:23:30.072Z,99601.96
2017-09-13T16:26:01.556Z,99603.56
2017-09-13T16:28:33.029Z,99598.14
2017-09-13T16:31:04.585Z,99604.81
2017-09-13T16:33:35.907Z,99628.48
2017-09-13T16:36:11.717Z,99612.39
2017-09-13T16:38:46.692Z,99608.59
2017-09-13T16:41:17.800Z,99613.70
2017-09-13T16:43:54.599Z,99607.17
2017-09-13T16:46:25.886Z,99604.32
2017-09-13T16:48:57.202Z,99616.58
2017-09-13T16:51:29.612Z,99595.98
2017-09-13T16:54:01.265Z,99612.52
2017-09-13T16:56:32.473Z,99623.38
2017-09-13T16:59:07.380Z,99625.06
2017-09-13T17:01:39.314Z,99620.95
2017-09-13T17:07:03.641Z,99632.77
2017-09-13T17:09:35.652Z,99632.05
2017-09-13T17:12:10.874Z,99628.73
2017-09-13T17:16:02.463Z,99610.62
2017-09-13T17:18:51.696Z,99625.59
2017-09-13T17:21:22.822Z,99627.45
2017-09-13T17:23:54.010Z,99627.37
2017-09-13T17:26:25.238Z,99637.26
2017-09-13T17:28:56.837Z,99624.16
2017-09-13T17:31:28.255Z,99617.44
2017-09-13T17:33:59.445Z,99601.95
2017-09-13T17:36:30.705Z,99607.92
2017-09-13T17:39:02.669Z,99598.28
2017-09-13T17:41:33.953Z,99614.42
2017-09-13T17:44:07.166Z,99589.55
2017-09-13T17:46:38.487Z,99594.98
2017-09-13T17:49:09.988Z,99591.21
2017-09-13T17:57:18.002Z,99568.28
2017-09-13T17:59:54.302Z,99574.06
2017-09-13T18:02:27.834Z,99565.11
2017-09-13T18:04:59.170Z,99578.91
2017-09-13T18:10:21.777Z,99621.24
2017-09-13T18:12:52.995Z,99599.98
2017-09-13T18:24:23.987Z,99582.09
2017-09-13T18:29:50.344Z,99631.39
2017-09-13T18:32:32.110Z,99611.16
2017-09-13T18:35:08.823Z,99607.01
2017-09-13T18:40:35.055Z,99589.77
2017-09-13T18:43:08.847Z,99606.32
2017-09-13T18:45:40.673Z,99619.09
2017-09-13T18:51:27.106Z,99604.13
2017-09-13T18:56:58.154Z,99608.62
2017-09-13T19:05:32.095Z,99620.82
2017-09-13T19:11:47.105Z,99583.08
2017-09-13T19:14:19.211Z,99573.02
2017-09-13T19:17:02.926Z,99564.66
2017-09-13T19:19:34.094Z,99558.42
2017-09-13T19:22:11.089Z,99556.45
2017-09-13T19:24:51.696Z,99568.91
2017-09-13T19:27:37.536Z,99561.64
2017-09-13T19:30:12.537Z,99558.37
2017-09-13T19:32:57.337Z,99576.00
2017-09-13T19:35:28.686Z,99567.91
2017-09-13T19:38:00.439Z,99569.74
2017-09-13T19:40:45.386Z,99576.22
2017-09-13T19:48:55.285Z,99543.52
2017-09-13T19:51:27.519Z,99563.59
2017-09-13T19:56:59.356Z,99568.97
2017-09-13T20:02:26.200Z,99570.58
2017-09-13T20:16:34.763Z,99537.67
2017-09-13T20:19:25.737Z,99537.25
2017-09-13T20:22:08.970Z,99545.95
2017-09-13T20:30:25.633Z,99583.11
2017-09-13T20:39:11.549Z,99526.95
2017-09-13T20:41:43.349Z,99527.23
2017-09-13T20:52:58.269Z,99502.94
2017-09-13T20:55:34.558Z,99499.88
2017-09-13T21:09:39.565Z,99505.57
2017-09-13T21:12:32.412Z,99523.05
2017-09-13T21:15:05.336Z,99540.06
2017-09-13T21:17:36.700Z,99502.98
2017-09-13T21:20:10.924Z,99512.56
2017-09-13T21:26:13.800Z,99536.46
2017-09-13T21:31:40.215Z,99531.93
2017-09-13T21:34:13.358Z,99517.39
2017-09-13T21:40:20.103Z,99504.03
2017-09-13T21:42:52.858Z,99503.75
2017-09-13T21:51:14.808Z,99487.87
2017-09-13T21:53:49.231Z,99501.88
2017-09-13T21:56:21.171Z,99477.53
2017-09-13T21:58:52.353Z,99473.13
2017-09-13T22:04:35.176Z,99456.84
2017-09-13T22:08:24.238Z,99468.88
2017-09-13T22:10:55.797Z,99448.20
2017-09-13T22:16:33.622Z,99450.42
2017-09-13T22:22:12.401Z,99458.74
2017-09-13T22:24:43.788Z,99461.58
2017-09-13T22:27:18.542Z,99460.97
2017-09-13T22:29:52.299Z,99465.78
2017-09-13T22:35:18.510Z,99447.38
2017-09-13T22:37:49.725Z,99459.36
2017-09-13T22:40:21.485Z,99438.41
2017-09-13T22:42:53.379Z,99430.52
2017-09-13T22:45:24.593Z,99450.44
2017-09-13T22:47:56.497Z,99442.93
2017-09-13T22:50:40.187Z,99428.95
2017-09-13T22:53:33.270Z,99422.39
2017-09-13T22:59:05.611Z,99414.55
2017-09-13T23:04:34.002Z,99412.05
2017-09-13T23:12:54.462Z,99420.73
2017-09-13T23:15:26.318Z,99422.34
2017-09-13T23:26:44.819Z,99467.86
2017-09-13T23:29:16.860Z,99465.74
2017-09-13T23:34:37.714Z,99458.09
2017-09-13T23:37:10.251Z,99455.55
2017-09-13T23:40:04.159Z,99453.25
2017-09-13T23:45:36.436Z,99446.61
2017-09-13T23:48:19.272Z,99448.84
2017-09-13T23:50:50.422Z,99447.52
2017-09-13T23:53:21.588Z,99442.68
